x

Buoy A01 - Mass. Bay/stellwagen (44029) Wave Buoy

6:04pm - Fri 22nd Sep 2017 All times are EDT. -4 hours from GMT.

  • Sig Wave height 12.1ft
  • Peak Period 8s
  • Wind
    29mph, 36mph gusts
  • Sea Temp 59°f
  • Air Temp 60°f
  • Sea Pressure 1014.4mb
  • Buoy A01 - Mass. Bay/stellwagen
  • Buoy A01 - Mass. Bay/stellwagen

More Historic Weather Station data

Upgrade to MSW Pro to gain access to the past 30 days of data for over 8000 Wavebouys and Weather Stations around the globe.

Join

Comparision Forecast

View Surf forecast
   
Fri 09/22 6:04pm 12ft 8s 29 36 mph 1014.4mb 59f 60f
5:04pm 15.5ft 11s 29 36 mph 1014.7mb 59f 60f
4:04pm 12ft 11s 29 36 mph 1014.4mb 59f 59f
3:04pm 13ft 11s 29 38 mph 1014.4mb 59f 60f
2:04pm 13.5ft 11s 29 38 mph 1014.5mb 59f 60f
1:04pm 14ft 11s 29 36 mph 1014.8mb 59f 59f
12:04pm 12.5ft 11s 31 38 mph 1015.1mb 59f 59f
11:04am 13.5ft 11s 31 38 mph 1015.2mb 59f 59f
10:04am 13ft 8s 29 36 mph 1015.4mb 60f 59f
9:04am 14ft 11s 31 38 mph 1015.4mb 60f 60f
8:04am 11.5ft 11s 29 38 mph 1015.4mb 60f 59f
7:04am 11.5ft 8s 31
mph
1015mb 60f 59f
6:04am 11.5ft 8s 29
mph
1014.8mb 60f 59f
5:04am 14ft 11s 29
mph
1014.5mb 60f 59f
4:04am 14ft 11s 29
mph
1014.4mb 60f 60f
3:04am 13ft 11s 29
mph
1014.3mb 61f 61f
2:04am 13ft 8s 29
mph
1014.5mb 60f 61f
1:04am 12ft 11s 31
mph
1015.2mb 61f 62f
12:04am 12ft 11s 27 31 mph 1015.4mb 61f 63f
Thu 09/21 11:04pm 13ft 11s 27 31 mph 1015.2mb 61f 64f
10:04pm 10.5ft 8s 25 31 mph 1015.7mb 61f 63f
9:04pm 10ft 11s 25 31 mph 1015.8mb 61f 64f
8:04pm 10ft 11s 22 27 mph 1015.8mb 61f 64f
7:04pm 11ft 11s 20 25 mph 1015.2mb 61f 64f
6:04pm 10ft 11s 20 27 mph 1015mb 62f 64f
5:04pm 9.5ft 8s 20 25 mph 1015.1mb 62f 64f
4:04pm 12ft 11s 22 27 mph 1014.9mb 62f 64f
3:04pm 10.5ft 8s 22 27 mph 1015mb 62f 64f
2:04pm 11ft 11s 27 34 mph 1014.8mb 62f 65f
1:04pm 10.5ft 11s 27 31 mph 1014.9mb 62f 64f
12:04pm 10.5ft 11s 27 31 mph 1014.9mb 62f 64f
11:04am 12ft 11s 27 34 mph 1015mb 62f 63f
10:04am 11.5ft 8s 29
mph
1014.8mb 62f 64f
9:04am 10ft 11s 27 34 mph 1014.2mb 62f 64f
8:04am 9ft 8s 27 31 mph 1013.9mb 62f 64f
7:04am 10ft 8s 29
mph
1013.2mb 62f 65f
6:04am 9ft 8s 29
mph
1012mb 62f 65f
5:04am 9ft 8s 29
mph
1011.4mb 62f 66f
4:04am 8.5ft 8s 27 34 mph 1011mb 62f 66f
3:04am 8.5ft 6s 27 31 mph 1010.5mb 62f 66f
2:04am 8.5ft 11s 25 27 mph 1010.8mb 62f 66f
1:04am 9ft 6s 22 27 mph 1010.7mb 62f 66f
12:04am 7.5ft 6s 25 29 mph 1010mb 62f 66f
Wed 09/20 11:04pm 6ft 6s 22 27 mph 1010.4mb 62f 66f
10:04pm 7.5ft 6s 18 20 mph 1010.7mb 62f 64f
9:04pm 7ft 6s 20 22 mph 1010.5mb 62f 64f
8:04pm 7ft 6s 18 22 mph 1010.7mb 62f 64f
7:04pm 8ft 6s 20 25 mph 1010.7mb 62f 65f
6:04pm 7.5ft 6s 20 27 mph 1010.5mb 62f 64f
5:04pm 9ft 6s 20 25 mph 1010.4mb 62f 64f
4:04pm 8ft 6s 27 31 mph 1009.9mb 62f 64f
3:04pm 7ft 6s 25 31 mph 1010.1mb 62f 64f
2:04pm 6ft 6s 27 31 mph 1009.7mb 62f 64f
1:04pm 6ft 6s 27 31 mph 1010.3mb 62f 64f
12:04pm 7ft 6s 25 29 mph 1010.7mb 62f 63f
11:04am 7ft 6s 22 27 mph 1011mb 62f 64f
10:04am 7ft 6s 25 27 mph 1011.5mb 62f 63f
9:04am 6ft 5s 22 27 mph 1011.4mb 62f 64f
8:04am 6ft 5s 22 27 mph 1011.4mb 63f 64f
7:04am 6.5ft 5s 25 29 mph 1011.6mb 63f 63f
6:04am 7ft 5s 22 27 mph 1011.7mb 63f 63f
5:04am 6ft 5s 25 29 mph 1011.5mb 63f 63f
4:04am 7ft 8s 22 27 mph 1011.6mb 63f 63f
3:04am 4.5ft 5s 22 29 mph 1012mb 63f 63f
2:04am 5ft 5s 22 27 mph 1012.7mb 63f 63f
1:04am 6ft 11s 18 22 mph 1012.9mb 63f 64f
12:04am 4ft 5s 20 22 mph 1013.4mb 64f 64f
Tue 09/19 11:04pm 4.5ft 5s 18 25 mph 1014.3mb 64f 64f
10:04pm 5.5ft 5s 20 25 mph 1014.6mb 64f 63f
9:04pm 6ft 11s 20 25 mph 1014.9mb 64f 63f
8:04pm 4.5ft 5s 18 22 mph 1015.1mb 64f 63f
7:04pm 4.5ft 8s 18 22 mph 1015.3mb 64f 63f
6:04pm 4.5ft 5s 18 20 mph 1015.5mb 64f 63f
5:04pm 4ft 5s 16 18 mph 1015.7mb 64f 63f
4:04pm 4ft 5s 18 20 mph 1016.3mb 64f 64f
3:04pm 3.5ft 5s 18 22 mph 1016.6mb 64f 64f
2:04pm 3.5ft 5s 16 20 mph 1017.3mb 63f 63f
1:04pm 5ft 11s 20 22 mph 1017.5mb 63f 63f
12:04pm 3.5ft 4s 18 20 mph 1018.7mb 63f 63f
11:04am 3.5ft 4s 18 22 mph 1018.6mb 63f 63f
10:04am 3ft 4s 18 20 mph 1019mb 64f 63f
9:04am 3ft 4s 18 20 mph 1019.2mb 64f 63f
8:04am 3ft 4s 16 20 mph 1019.2mb 64f 63f
7:04am 2.5ft 4s 16 18 mph 1019.2mb 64f 64f
6:04am 2.5ft 4s 16 18 mph 1019mb 64f 64f
5:04am 3ft 8s 13 18 mph 1019.2mb 64f 64f
4:04am 2ft 5s 16 18 mph 1019.7mb 64f 64f
3:04am 2ft 5s 13 16 mph 1019.7mb 64f 64f
2:04am  -   -  11 13 mph 1020mb 64f 64f
1:04am 2ft 4s 9 11 mph 1020.4mb 64f 64f
12:04am 1.6ft 4s 9 11 mph 1020.5mb 64f 64f